createdAt,value
2017-09-29T00:00:14.674Z,94.50
2017-09-29T00:02:42.293Z,94.50
2017-09-29T00:05:09.920Z,94.40
2017-09-29T00:07:37.515Z,94.40
2017-09-29T00:10:05.148Z,94.80
2017-09-29T00:12:32.818Z,94.50
2017-09-29T00:15:00.445Z,94.70
2017-09-29T00:17:28.815Z,94.60
2017-09-29T00:19:56.479Z,94.60
2017-09-29T00:22:24.139Z,94.70
2017-09-29T00:24:51.719Z,95.00
2017-09-29T00:27:19.340Z,95.50
2017-09-29T00:29:46.923Z,95.50
2017-09-29T00:32:14.512Z,95.90
2017-09-29T00:34:42.143Z,96.40
2017-09-29T00:37:09.777Z,96.20
2017-09-29T00:39:37.411Z,96.20
2017-09-29T00:42:05.048Z,95.60
2017-09-29T00:44:32.711Z,95.50
2017-09-29T00:47:01.106Z,95.60
2017-09-29T00:49:28.791Z,95.60
2017-09-29T00:51:56.401Z,95.60
2017-09-29T00:54:24.021Z,95.30
2017-09-29T00:56:51.638Z,95.10
2017-09-29T00:59:19.246Z,95.00
2017-09-29T01:01:46.834Z,95.10
2017-09-29T01:04:14.524Z,94.80
2017-09-29T01:06:42.971Z,94.70
2017-09-29T01:09:10.619Z,94.70
2017-09-29T01:11:38.197Z,94.60
2017-09-29T01:14:05.818Z,94.70
2017-09-29T01:16:33.475Z,94.80
2017-09-29T01:19:01.152Z,95.00
2017-09-29T01:21:28.819Z,95.00
2017-09-29T01:23:56.447Z,95.10
2017-09-29T01:26:24.090Z,95.50
2017-09-29T01:28:52.503Z,95.50
2017-09-29T01:31:20.127Z,95.50
2017-09-29T01:33:48.582Z,95.70
2017-09-29T01:36:16.258Z,95.70
2017-09-29T01:38:43.919Z,95.60
2017-09-29T01:41:11.554Z,96.00
2017-09-29T01:43:39.214Z,96.10
2017-09-29T01:46:06.858Z,96.20
2017-09-29T01:48:34.501Z,96.60
2017-09-29T01:51:02.092Z,97.00
2017-09-29T01:53:29.787Z,97.10
2017-09-29T01:55:57.426Z,97.20
2017-09-29T01:58:25.063Z,97.40
2017-09-29T02:00:52.852Z,97.60
2017-09-29T02:03:20.497Z,97.50
2017-09-29T02:05:48.130Z,97.50
2017-09-29T02:08:15.741Z,97.40
2017-09-29T02:10:43.322Z,97.30
2017-09-29T02:13:10.953Z,97.40
2017-09-29T02:15:38.582Z,97.00
2017-09-29T02:18:06.183Z,96.80
2017-09-29T02:20:33.834Z,96.80
2017-09-29T02:23:01.515Z,96.70
2017-09-29T02:25:29.143Z,96.50
2017-09-29T02:27:56.778Z,96.50
2017-09-29T02:30:25.185Z,96.80
2017-09-29T02:32:52.844Z,96.80
2017-09-29T02:35:20.490Z,97.30
2017-09-29T02:37:48.131Z,97.50
2017-09-29T02:40:16.546Z,98.10
2017-09-29T02:42:44.175Z,98.10
2017-09-29T02:45:12.575Z,98.70
2017-09-29T02:47:40.252Z,98.70
2017-09-29T02:50:07.917Z,98.60
2017-09-29T02:52:35.620Z,99.10
2017-09-29T02:55:03.270Z,98.50
2017-09-29T02:57:32.267Z,98.80
2017-09-29T03:00:02.315Z,99.20
2017-09-29T03:02:31.178Z,99.60
2017-09-29T03:05:00.375Z,99.20
2017-09-29T03:07:28.012Z,99.70
2017-09-29T03:09:55.695Z,99.90
2017-09-29T03:12:23.321Z,99.90
2017-09-29T03:14:50.935Z,99.90
2017-09-29T03:17:18.515Z,99.90
2017-09-29T03:19:46.906Z,99.90
2017-09-29T03:22:15.287Z,99.90
2017-09-29T03:24:42.863Z,99.90
2017-09-29T03:27:10.489Z,99.90
2017-09-29T03:29:38.107Z,99.90
2017-09-29T03:32:05.756Z,99.90
2017-09-29T03:34:33.405Z,99.90
2017-09-29T03:37:01.036Z,99.90
2017-09-29T03:39:28.702Z,99.90
2017-09-29T03:41:56.320Z,99.90
2017-09-29T03:44:23.955Z,99.90
2017-09-29T03:46:51.580Z,99.90
2017-09-29T03:49:20.007Z,99.90
2017-09-29T03:51:49.390Z,99.90
2017-09-29T03:54:17.358Z,99.90
2017-09-29T03:56:45.617Z,99.90
2017-09-29T03:59:13.656Z,99.90
2017-09-29T04:01:41.264Z,99.90
2017-09-29T04:04:08.895Z,99.90
2017-09-29T04:06:36.529Z,99.90
2017-09-29T04:09:04.170Z,99.90
2017-09-29T04:11:31.765Z,99.90
2017-09-29T04:13:59.355Z,99.90
2017-09-29T04:16:26.965Z,99.90
2017-09-29T04:18:54.598Z,99.90
2017-09-29T04:21:22.193Z,99.90
2017-09-29T04:23:49.769Z,99.90
2017-09-29T04:26:17.351Z,99.90
2017-09-29T04:28:44.929Z,99.90
2017-09-29T04:31:13.331Z,99.90
2017-09-29T04:33:40.916Z,99.90
2017-09-29T04:36:08.551Z,99.90
2017-09-29T04:38:36.140Z,99.90
2017-09-29T04:41:03.777Z,99.90
2017-09-29T04:43:31.397Z,99.90
2017-09-29T04:45:59.753Z,99.90
2017-09-29T04:48:27.334Z,99.90
2017-09-29T04:50:54.980Z,99.90
2017-09-29T04:53:22.606Z,99.90
2017-09-29T04:55:50.233Z,99.90
2017-09-29T04:58:18.684Z,99.90
2017-09-29T05:00:46.307Z,99.90
2017-09-29T05:03:13.952Z,99.90
2017-09-29T05:05:41.590Z,99.90
2017-09-29T05:08:09.984Z,99.90
2017-09-29T05:10:37.658Z,99.90
2017-09-29T05:13:05.261Z,99.90
2017-09-29T05:15:32.857Z,99.90
2017-09-29T05:18:01.250Z,99.90
2017-09-29T05:20:28.886Z,99.90
2017-09-29T05:22:56.512Z,99.90
2017-09-29T05:25:24.178Z,99.90
2017-09-29T05:27:51.799Z,99.90
2017-09-29T05:30:19.395Z,99.90
2017-09-29T05:32:47.014Z,99.90
2017-09-29T05:35:15.409Z,97.90
2017-09-29T05:37:43.043Z,97.90
2017-09-29T05:40:11.400Z,93.20
2017-09-29T05:42:38.940Z,93.20
2017-09-29T05:45:06.562Z,91.50
2017-09-29T05:47:34.186Z,87.50
2017-09-29T05:50:01.824Z,86.50
2017-09-29T05:52:29.486Z,84.70
2017-09-29T05:54:57.171Z,80.30
2017-09-29T05:57:24.797Z,75.70
2017-09-29T05:59:52.423Z,73.10
2017-09-29T06:02:20.064Z,72.50
2017-09-29T06:04:47.708Z,75.70
2017-09-29T06:07:15.326Z,78.40
2017-09-29T06:09:42.938Z,82.90
2017-09-29T06:12:10.554Z,85.80
2017-09-29T06:14:38.139Z,89.80
2017-09-29T06:17:05.766Z,90.50
2017-09-29T06:19:33.353Z,90.90
2017-09-29T06:22:00.987Z,90.80
2017-09-29T06:24:28.623Z,91.80
2017-09-29T06:26:56.252Z,90.80
2017-09-29T06:29:23.866Z,88.00
2017-09-29T06:31:51.495Z,75.50
2017-09-29T06:34:19.178Z,65.10
2017-09-29T06:36:46.807Z,59.00
2017-09-29T06:39:14.434Z,54.80
2017-09-29T06:41:42.053Z,51.10
2017-09-29T06:44:09.684Z,48.80
2017-09-29T06:46:37.315Z,47.00
2017-09-29T06:49:04.941Z,48.40
2017-09-29T06:51:32.571Z,50.90
2017-09-29T06:54:00.433Z,52.00
2017-09-29T06:56:28.046Z,47.80
2017-09-29T06:58:55.632Z,46.50
2017-09-29T07:01:23.251Z,47.50
2017-09-29T07:03:50.848Z,51.60
2017-09-29T07:06:18.476Z,54.00
2017-09-29T07:08:46.118Z,57.80
2017-09-29T07:11:13.767Z,61.20
2017-09-29T07:13:41.395Z,63.80
2017-09-29T07:16:09.014Z,67.20
2017-09-29T07:18:36.643Z,70.40
2017-09-29T07:21:04.275Z,73.60
2017-09-29T07:23:31.898Z,75.60
2017-09-29T07:26:01.719Z,74.90
2017-09-29T07:28:29.699Z,74.90
2017-09-29T07:30:58.572Z,75.60
2017-09-29T07:33:26.201Z,77.10
2017-09-29T07:35:53.830Z,76.80
2017-09-29T07:38:21.514Z,77.60
2017-09-29T07:40:49.211Z,77.70
2017-09-29T07:43:16.849Z,78.40
2017-09-29T07:45:44.500Z,80.10
2017-09-29T07:48:12.139Z,80.20
2017-09-29T07:50:39.758Z,79.10
2017-09-29T07:53:07.431Z,77.80
2017-09-29T07:55:35.838Z,79.70
2017-09-29T07:58:03.454Z,79.50
2017-09-29T08:00:31.085Z,76.70
2017-09-29T08:02:58.699Z,77.20
2017-09-29T08:05:27.043Z,78.50
2017-09-29T08:07:54.667Z,78.50
2017-09-29T08:10:22.282Z,77.80
2017-09-29T08:12:49.965Z,74.60
2017-09-29T08:15:17.544Z,76.00
2017-09-29T08:17:45.170Z,74.40
2017-09-29T08:20:12.784Z,74.10
2017-09-29T08:22:40.414Z,75.30
2017-09-29T08:25:08.038Z,71.90
2017-09-29T08:27:35.626Z,66.60
2017-09-29T08:30:04.028Z,64.30
2017-09-29T08:32:31.659Z,64.30
2017-09-29T08:35:00.099Z,56.70
2017-09-29T08:37:27.729Z,57.10
2017-09-29T08:39:55.352Z,58.70
2017-09-29T08:42:23.015Z,57.90
2017-09-29T08:44:50.640Z,58.20
2017-09-29T08:47:18.343Z,56.20
2017-09-29T08:49:45.974Z,54.60
2017-09-29T08:52:13.715Z,55.40
2017-09-29T08:54:41.359Z,54.20
2017-09-29T08:57:08.986Z,54.50
2017-09-29T08:59:36.627Z,56.80
2017-09-29T09:02:04.266Z,57.20
2017-09-29T09:04:31.895Z,54.70
2017-09-29T09:06:59.526Z,54.70
2017-09-29T09:09:27.155Z,52.50
2017-09-29T09:11:54.851Z,52.60
2017-09-29T09:14:22.486Z,52.00
2017-09-29T09:16:50.124Z,52.60
2017-09-29T09:19:17.762Z,52.80
2017-09-29T09:21:45.403Z,50.80
2017-09-29T09:24:13.038Z,51.00
2017-09-29T09:26:40.666Z,50.00
2017-09-29T09:29:08.294Z,52.00
2017-09-29T09:31:35.980Z,53.10
2017-09-29T09:34:03.606Z,51.80
2017-09-29T09:36:31.259Z,51.70
2017-09-29T09:39:00.087Z,52.00
2017-09-29T09:41:28.446Z,49.80
2017-09-29T09:43:56.131Z,49.80
2017-09-29T09:46:23.762Z,49.80
2017-09-29T09:48:51.370Z,47.40
2017-09-29T09:51:19.168Z,43.90
2017-09-29T09:53:46.794Z,40.80
2017-09-29T09:56:14.422Z,40.80
2017-09-29T09:58:42.037Z,40.20
2017-09-29T10:01:09.701Z,38.70
2017-09-29T10:03:37.281Z,38.00
2017-09-29T10:06:04.902Z,38.80
2017-09-29T10:08:32.518Z,38.10
2017-09-29T10:11:00.148Z,38.60
2017-09-29T10:13:27.771Z,38.70
2017-09-29T10:15:55.363Z,38.30
2017-09-29T10:18:23.034Z,38.20
2017-09-29T10:20:50.703Z,37.70
2017-09-29T10:23:18.316Z,38.80
2017-09-29T10:25:45.938Z,38.90
2017-09-29T10:28:13.583Z,38.00
2017-09-29T10:30:41.205Z,36.80
2017-09-29T10:33:08.825Z,37.80
2017-09-29T10:35:36.411Z,37.60
2017-09-29T10:38:04.034Z,37.60
2017-09-29T10:40:31.714Z,37.50
2017-09-29T10:42:59.531Z,36.90
2017-09-29T10:45:27.142Z,36.10
2017-09-29T10:47:54.766Z,36.60
2017-09-29T10:50:22.397Z,36.50
2017-09-29T10:52:50.866Z,37.80
2017-09-29T10:55:19.257Z,39.10
2017-09-29T10:57:47.603Z,38.00
2017-09-29T11:00:15.230Z,38.00
2017-09-29T11:02:42.816Z,38.70
2017-09-29T11:05:10.449Z,38.10
2017-09-29T11:07:38.064Z,38.50
2017-09-29T11:10:05.653Z,38.90
2017-09-29T11:12:33.236Z,37.30
2017-09-29T11:15:00.910Z,36.90
2017-09-29T11:17:28.536Z,38.20
2017-09-29T11:19:56.118Z,39.40
2017-09-29T11:22:23.691Z,39.40
2017-09-29T11:24:51.314Z,39.80
2017-09-29T11:27:18.929Z,38.20
2017-09-29T11:29:46.550Z,37.00
2017-09-29T11:32:14.146Z,36.40
2017-09-29T11:34:41.732Z,38.20
2017-09-29T11:37:09.364Z,38.00
2017-09-29T11:39:36.995Z,39.30
2017-09-29T11:42:04.573Z,38.60
2017-09-29T11:44:32.156Z,37.50
2017-09-29T11:46:59.796Z,37.10
2017-09-29T11:49:27.426Z,38.10
2017-09-29T11:51:55.045Z,38.10
2017-09-29T11:54:22.630Z,41.00
2017-09-29T11:56:51.014Z,45.50
2017-09-29T11:59:18.609Z,45.60
2017-09-29T12:01:46.239Z,47.50
2017-09-29T12:04:13.887Z,48.70
2017-09-29T12:06:41.526Z,50.30
2017-09-29T12:09:09.143Z,51.00
2017-09-29T12:11:36.810Z,50.30
2017-09-29T12:14:04.438Z,50.50
2017-09-29T12:16:32.792Z,50.50
2017-09-29T12:19:00.430Z,50.50
2017-09-29T12:21:28.022Z,50.40
2017-09-29T12:23:55.621Z,50.60
2017-09-29T12:26:23.247Z,50.20
2017-09-29T12:28:50.866Z,51.70
2017-09-29T12:31:18.485Z,50.40
2017-09-29T12:33:46.110Z,51.70
2017-09-29T12:36:13.728Z,51.70
2017-09-29T12:38:41.763Z,52.90
2017-09-29T12:41:16.634Z,53.40
2017-09-29T12:43:44.380Z,54.20
2017-09-29T12:46:12.002Z,49.90
2017-09-29T12:48:39.613Z,51.00
2017-09-29T12:51:07.254Z,52.70
2017-09-29T12:53:35.654Z,51.90
2017-09-29T12:56:03.278Z,51.90
2017-09-29T12:58:30.958Z,53.30
2017-09-29T13:00:59.348Z,55.10
2017-09-29T13:03:26.956Z,55.00
2017-09-29T13:05:54.581Z,54.80
2017-09-29T13:08:22.242Z,52.00
2017-09-29T13:10:49.871Z,54.20
2017-09-29T13:13:17.451Z,54.20
2017-09-29T13:15:45.883Z,52.50
2017-09-29T13:18:13.497Z,52.50
2017-09-29T13:20:41.131Z,53.80
2017-09-29T13:23:08.750Z,53.00
2017-09-29T13:25:36.369Z,53.00
2017-09-29T13:28:03.990Z,51.40
2017-09-29T13:30:31.626Z,53.70
2017-09-29T13:32:59.249Z,53.70
2017-09-29T13:35:27.661Z,53.90
2017-09-29T13:37:55.292Z,54.50
2017-09-29T13:40:23.779Z,54.40
2017-09-29T13:42:51.402Z,54.40
2017-09-29T13:45:19.023Z,53.40
2017-09-29T13:47:46.645Z,51.70
2017-09-29T13:50:14.242Z,52.70
2017-09-29T13:52:41.895Z,53.30
2017-09-29T13:55:09.502Z,52.60
2017-09-29T13:57:37.088Z,53.00
2017-09-29T14:00:04.725Z,52.60
2017-09-29T14:02:32.348Z,53.90
2017-09-29T14:04:59.932Z,52.30
2017-09-29T14:07:27.556Z,53.70
2017-09-29T14:09:55.186Z,53.40
2017-09-29T14:12:22.826Z,52.80
2017-09-29T14:14:50.454Z,52.80
2017-09-29T14:17:18.037Z,53.60
2017-09-29T14:19:45.615Z,53.10
2017-09-29T14:22:13.193Z,55.10
2017-09-29T14:24:40.802Z,53.10
2017-09-29T14:27:08.378Z,55.10
2017-09-29T14:29:36.013Z,54.20
2017-09-29T14:32:03.583Z,55.50
2017-09-29T14:34:31.229Z,55.50
2017-09-29T14:36:59.639Z,55.60
2017-09-29T14:39:27.353Z,55.60
2017-09-29T14:41:54.976Z,55.00
2017-09-29T14:44:22.561Z,55.40
2017-09-29T14:46:50.306Z,54.90
2017-09-29T14:49:17.941Z,57.10
2017-09-29T14:51:45.557Z,56.80
2017-09-29T14:54:13.355Z,57.80
2017-09-29T14:56:40.970Z,56.70
2017-09-29T14:59:08.577Z,57.20
2017-09-29T15:01:36.189Z,57.60
2017-09-29T15:04:03.818Z,56.70
2017-09-29T15:06:31.442Z,57.90
2017-09-29T15:08:59.059Z,59.30
2017-09-29T15:11:26.675Z,58.60
2017-09-29T15:13:54.297Z,58.50
2017-09-29T15:16:21.914Z,60.10
2017-09-29T15:18:49.573Z,62.10
2017-09-29T15:21:17.362Z,61.00
2017-09-29T15:23:45.479Z,61.80
2017-09-29T15:26:13.114Z,62.00
2017-09-29T15:28:41.037Z,62.00
2017-09-29T15:31:08.667Z,62.50
2017-09-29T15:33:36.286Z,63.70
2017-09-29T15:36:03.915Z,64.40
2017-09-29T15:38:31.530Z,63.90
2017-09-29T15:41:00.194Z,65.80
2017-09-29T15:43:27.763Z,66.50
2017-09-29T15:45:55.418Z,65.90
2017-09-29T15:48:23.032Z,64.70
2017-09-29T15:50:50.942Z,65.90
2017-09-29T15:53:18.551Z,65.60
2017-09-29T15:55:46.174Z,65.00
2017-09-29T15:58:13.762Z,65.20
2017-09-29T16:00:41.377Z,67.20
2017-09-29T16:03:09.011Z,67.20
2017-09-29T16:05:36.630Z,67.50
2017-09-29T16:08:04.212Z,67.10
2017-09-29T16:10:31.833Z,68.40
2017-09-29T16:12:59.441Z,70.00
2017-09-29T16:15:27.016Z,69.80
2017-09-29T16:17:55.404Z,71.20
2017-09-29T16:20:23.032Z,71.30
2017-09-29T16:22:50.604Z,72.90
2017-09-29T16:25:18.229Z,73.70
2017-09-29T16:27:45.886Z,74.00
2017-09-29T16:30:13.498Z,74.80
2017-09-29T16:32:41.852Z,79.90
2017-09-29T16:35:09.481Z,80.00
2017-09-29T16:37:37.098Z,79.10
2017-09-29T16:40:05.473Z,82.40
2017-09-29T16:42:33.099Z,82.40
2017-09-29T16:45:00.713Z,81.90
2017-09-29T16:47:28.973Z,85.20
2017-09-29T16:49:57.359Z,86.00
2017-09-29T16:52:25.169Z,86.00
2017-09-29T16:54:52.751Z,87.30
2017-09-29T16:57:20.361Z,88.90
2017-09-29T16:59:48.026Z,90.60
2017-09-29T17:02:15.882Z,91.70
2017-09-29T17:04:44.300Z,92.40
2017-09-29T17:07:12.091Z,92.40
2017-09-29T17:09:39.672Z,93.00
2017-09-29T17:12:07.433Z,93.90
2017-09-29T17:14:37.159Z,93.20
2017-09-29T17:17:05.547Z,94.90
2017-09-29T17:19:33.294Z,94.90
2017-09-29T17:22:01.698Z,95.00
2017-09-29T17:24:29.245Z,95.00
2017-09-29T17:26:56.913Z,95.50
2017-09-29T17:29:24.545Z,96.10
2017-09-29T17:31:52.173Z,96.30
2017-09-29T17:34:20.092Z,96.90
2017-09-29T17:36:47.987Z,97.30
2017-09-29T17:39:16.450Z,97.80
2017-09-29T17:44:27.579Z,98.70
2017-09-29T17:46:56.276Z,99.30
2017-09-29T17:49:23.938Z,99.60
2017-09-29T17:51:52.210Z,99.90
2017-09-29T17:54:19.794Z,99.90
2017-09-29T17:59:46.761Z,99.90
2017-09-29T18:02:14.604Z,99.90
2017-09-29T18:04:42.492Z,99.90
2017-09-29T18:07:10.448Z,99.90
2017-09-29T18:09:42.609Z,99.90
2017-09-29T18:12:11.034Z,99.90
2017-09-29T18:14:39.716Z,99.90
2017-09-29T18:17:19.527Z,99.90
2017-09-29T18:19:53.675Z,99.90
2017-09-29T18:22:21.483Z,99.90
2017-09-29T18:24:49.107Z,99.90
2017-09-29T18:27:16.694Z,99.90
2017-09-29T18:29:44.435Z,99.90
2017-09-29T18:32:12.814Z,99.90
2017-09-29T18:34:40.438Z,99.90
2017-09-29T18:37:08.070Z,99.90
2017-09-29T18:39:35.655Z,99.90
2017-09-29T18:42:04.466Z,99.90
2017-09-29T18:44:37.846Z,99.90
2017-09-29T18:47:11.185Z,99.90
2017-09-29T18:49:38.910Z,99.90
2017-09-29T18:52:06.539Z,99.90
2017-09-29T18:54:34.361Z,99.90
2017-09-29T18:57:02.173Z,99.90
2017-09-29T18:59:29.810Z,98.40
2017-09-29T19:01:57.490Z,98.20
2017-09-29T19:04:25.113Z,97.50
2017-09-29T19:06:53.515Z,96.20
2017-09-29T19:09:21.352Z,96.20
2017-09-29T19:11:48.955Z,95.90
2017-09-29T19:14:16.557Z,96.00
2017-09-29T19:16:44.214Z,96.30
2017-09-29T19:19:11.866Z,96.40
2017-09-29T19:21:39.471Z,96.80
2017-09-29T19:24:07.856Z,96.80
2017-09-29T19:26:36.207Z,97.30
2017-09-29T19:29:04.742Z,97.60
2017-09-29T19:31:32.369Z,97.60
2017-09-29T19:34:00.780Z,98.00
2017-09-29T19:36:28.456Z,98.00
2017-09-29T19:38:56.098Z,97.10
2017-09-29T19:41:23.776Z,96.50
2017-09-29T19:43:51.396Z,96.60
2017-09-29T19:46:21.534Z,96.70
2017-09-29T19:48:50.390Z,97.10
2017-09-29T19:51:18.021Z,97.00
2017-09-29T19:53:46.453Z,96.30
2017-09-29T19:56:14.894Z,95.80
2017-09-29T19:58:42.766Z,95.80
2017-09-29T20:01:21.560Z,95.70
2017-09-29T20:03:49.183Z,95.40
2017-09-29T20:06:16.781Z,95.00
2017-09-29T20:08:44.790Z,95.00
2017-09-29T20:11:12.612Z,94.70
2017-09-29T20:13:40.247Z,94.40
2017-09-29T20:16:07.843Z,94.20
2017-09-29T20:18:35.478Z,94.10
2017-09-29T20:21:03.073Z,94.20
2017-09-29T20:23:30.665Z,94.00
2017-09-29T20:25:58.278Z,94.10
2017-09-29T20:28:25.918Z,93.80
2017-09-29T20:30:53.530Z,93.70
2017-09-29T20:33:21.203Z,93.30
2017-09-29T20:35:48.855Z,93.10
2017-09-29T20:38:16.492Z,92.80
2017-09-29T20:40:44.196Z,92.80
2017-09-29T20:43:11.824Z,92.80
2017-09-29T20:45:39.420Z,92.70
2017-09-29T20:48:07.008Z,92.80
2017-09-29T20:50:35.411Z,92.80
2017-09-29T20:53:03.001Z,92.80
2017-09-29T20:55:30.588Z,93.00
2017-09-29T20:57:58.259Z,92.90
2017-09-29T21:00:26.702Z,92.80
2017-09-29T21:02:54.326Z,92.80
2017-09-29T21:05:21.911Z,92.30
2017-09-29T21:07:49.555Z,92.30
2017-09-29T21:10:17.474Z,92.40
2017-09-29T21:12:45.114Z,92.40
2017-09-29T21:15:12.704Z,92.50
2017-09-29T21:17:40.421Z,92.40
2017-09-29T21:20:08.005Z,92.50
2017-09-29T21:22:35.699Z,92.80
2017-09-29T21:25:04.057Z,93.10
2017-09-29T21:27:31.659Z,93.10
2017-09-29T21:29:59.308Z,93.40
2017-09-29T21:32:26.944Z,93.30
2017-09-29T21:34:54.590Z,94.10
2017-09-29T21:37:22.183Z,93.30
2017-09-29T21:39:50.570Z,93.50
2017-09-29T21:42:18.988Z,93.50
2017-09-29T21:44:46.621Z,93.40
2017-09-29T21:47:14.266Z,93.50
2017-09-29T21:49:42.654Z,93.80
2017-09-29T21:52:10.299Z,93.80
2017-09-29T21:54:37.931Z,93.70
2017-09-29T21:57:05.565Z,93.60
2017-09-29T21:59:33.198Z,93.60
2017-09-29T22:02:00.828Z,93.90
2017-09-29T22:04:28.416Z,93.80
2017-09-29T22:06:56.810Z,93.90
2017-09-29T22:09:24.455Z,93.80
2017-09-29T22:11:52.076Z,94.00
2017-09-29T22:14:19.710Z,93.80
2017-09-29T22:16:47.332Z,94.20
2017-09-29T22:19:14.955Z,94.00
2017-09-29T22:21:42.605Z,93.90
2017-09-29T22:24:10.217Z,93.70
2017-09-29T22:26:37.838Z,94.10
2017-09-29T22:29:05.470Z,94.00
2017-09-29T22:31:33.097Z,94.10
2017-09-29T22:34:00.718Z,94.10
2017-09-29T22:36:28.311Z,94.80
2017-09-29T22:38:56.010Z,94.80
2017-09-29T22:41:23.629Z,94.80
2017-09-29T22:43:51.254Z,94.90
2017-09-29T22:46:18.809Z,95.00
2017-09-29T22:48:46.435Z,95.10
2017-09-29T22:51:14.847Z,94.70
2017-09-29T22:53:42.475Z,94.70
2017-09-29T22:56:10.065Z,94.70
2017-09-29T22:58:37.697Z,94.80
2017-09-29T23:01:06.139Z,94.90
2017-09-29T23:03:33.755Z,94.90
2017-09-29T23:06:01.315Z,95.10
2017-09-29T23:08:28.912Z,95.20
2017-09-29T23:10:56.542Z,95.30
2017-09-29T23:13:24.123Z,95.30
2017-09-29T23:15:51.708Z,95.50
2017-09-29T23:18:19.334Z,95.60
2017-09-29T23:20:46.974Z,95.60
2017-09-29T23:23:14.591Z,95.40
2017-09-29T23:25:42.228Z,95.10
2017-09-29T23:28:09.823Z,95.00
2017-09-29T23:30:37.463Z,94.90
2017-09-29T23:33:05.040Z,94.90
2017-09-29T23:35:32.671Z,94.60
2017-09-29T23:38:01.036Z,94.80
2017-09-29T23:40:28.662Z,94.90
2017-09-29T23:42:56.255Z,95.00
2017-09-29T23:45:23.885Z,95.00
2017-09-29T23:47:51.506Z,94.50
2017-09-29T23:50:19.079Z,94.70
2017-09-29T23:52:46.659Z,94.80
2017-09-29T23:55:14.212Z,94.60
2017-09-29T23:57:41.793Z,94.60
